Time;durP1;ratioP1;P1;durP2;ratioP2;P2;SDS_P1;SDS_P2;PMS_P1;PMS_P2;Temp;Humidity;BMP_temperature;BMP_pressure;BME280_temperature;BME280_humidity;BME280_pressure;Samples;Min_cycle;Max_cycle;Signal;HPM_P1;HPM_P2
2020/12/25 00:00:21;;;;;;;5.13;2.50;;;;;;;-4.73;78.38;100075.29;1811750;78;21414;-73
2020/12/25 00:02:49;;;;;;;1.67;1.57;;;;;;;-4.72;78.37;100074.37;1790711;80;20971;-73
2020/12/25 00:05:19;;;;;;;2.40;2.20;;;;;;;-4.73;78.31;100058.14;1811592;79;20940;-74
2020/12/25 00:07:47;;;;;;;1.70;1.50;;;;;;;-4.74;78.06;100078.03;1811608;79;21017;-74
2020/12/25 00:10:15;;;;;;;2.83;2.27;;;;;;;-4.77;77.96;100073.27;1811724;79;20985;-73
2020/12/25 00:12:44;;;;;;;2.83;2.20;;;;;;;-4.75;77.94;100077.15;1811650;79;21193;-74
2020/12/25 00:15:12;;;;;;;1.33;1.23;;;;;;;-4.75;77.93;100069.70;1811524;79;21010;-73
2020/12/25 00:17:40;;;;;;;2.33;1.80;;;;;;;-4.74;77.99;100070.95;1790921;79;21024;-73
2020/12/25 00:20:08;;;;;;;2.40;2.13;;;;;;;-4.72;78.00;100066.93;1744255;79;21198;-73
2020/12/25 00:22:37;;;;;;;2.33;2.03;;;;;;;-4.71;77.96;100069.50;1735795;82;20949;-74
2020/12/25 00:25:04;;;;;;;1.07;1.00;;;;;;;-4.71;77.92;100072.14;1741000;82;21208;-74
2020/12/25 00:27:32;;;;;;;1.73;1.63;;;;;;;-4.73;77.84;100067.84;1758903;80;21562;-74
2020/12/25 00:30:00;;;;;;;1.40;1.30;;;;;;;-4.72;77.86;100062.50;1735005;82;21051;-74
2020/12/25 00:32:29;;;;;;;1.80;1.67;;;;;;;-4.70;77.86;100055.84;1765490;81;20993;-74
2020/12/25 00:34:57;;;;;;;3.27;2.27;;;;;;;-4.69;77.78;100051.81;1764977;81;20942;-74
2020/12/25 00:37:25;;;;;;;2.40;1.70;;;;;;;-4.70;77.75;100040.00;1765248;81;21035;-74
2020/12/25 00:39:53;;;;;;;2.30;1.70;;;;;;;-4.71;77.69;100035.20;1734872;81;21033;-73
2020/12/25 00:42:23;;;;;;;1.63;1.53;;;;;;;-4.71;77.63;100031.69;1764905;81;21009;-75
2020/12/25 00:44:51;;;;;;;1.50;1.47;;;;;;;-4.70;77.64;100028.98;1735124;81;21037;-73
2020/12/25 00:47:19;;;;;;;1.87;1.53;;;;;;;-4.69;77.64;100034.66;1765043;81;20950;-74
2020/12/25 00:49:47;;;;;;;1.03;1.03;;;;;;;-4.69;77.54;100029.38;1765334;81;21614;-73
2020/12/25 00:52:15;;;;;;;2.83;1.67;;;;;;;-4.71;77.45;100031.24;1735059;82;21002;-72
2020/12/25 00:54:44;;;;;;;1.97;1.67;;;;;;;-4.69;77.38;100031.14;1765072;81;20997;-72
2020/12/25 00:57:14;;;;;;;2.57;1.50;;;;;;;-4.68;77.39;100027.11;1759392;81;21037;-72
2020/12/25 00:59:46;;;;;;;2.72;2.12;;;;;;;-4.66;77.44;100019.97;1729750;82;20931;-73
2020/12/25 01:02:16;;;;;;;3.30;2.20;;;;;;;-4.66;77.41;100019.97;1762383;81;21721;-74
2020/12/25 01:04:44;;;;;;;1.10;1.10;;;;;;;-4.65;77.37;100014.25;1732126;82;20971;-74
2020/12/25 01:07:12;;;;;;;1.80;1.63;;;;;;;-4.67;77.34;100016.96;1757741;81;21546;-74
2020/12/25 01:09:40;;;;;;;3.80;2.07;;;;;;;-4.66;77.34;100018.66;1735264;81;21079;-74
2020/12/25 01:12:08;;;;;;;1.87;1.53;;;;;;;-4.67;77.14;100013.48;1735520;82;21519;-73
2020/12/25 01:14:37;;;;;;;2.20;1.80;;;;;;;-4.68;77.07;100023.63;1735144;82;21266;-73
2020/12/25 01:17:05;;;;;;;1.50;1.40;;;;;;;-4.69;77.01;100006.08;1735201;82;21573;-73
2020/12/25 01:19:32;;;;;;;1.67;1.57;;;;;;;-4.68;76.95;100011.28;1752555;80;21003;-74
2020/12/25 01:22:01;;;;;;;2.77;1.60;;;;;;;-4.69;76.81;100000.80;1766078;81;21463;-74
2020/12/25 01:24:29;;;;;;;2.63;2.40;;;;;;;-4.71;76.76;99996.06;1766425;81;20949;-73
2020/12/25 01:26:56;;;;;;;3.80;1.67;;;;;;;-4.73;76.43;99981.62;1766400;80;21791;-73
2020/12/25 01:29:24;;;;;;;2.37;2.17;;;;;;;-4.74;76.39;99987.85;1741839;81;21029;-74
2020/12/25 01:31:53;;;;;;;2.93;1.63;;;;;;;-4.74;76.37;99976.45;1762210;81;20966;-74
2020/12/25 01:34:23;;;;;;;1.17;1.17;;;;;;;-4.75;76.24;99979.53;1734794;81;21597;-73
2020/12/25 01:36:51;;;;;;;6.53;2.67;;;;;;;-4.74;76.32;99985.69;1740672;81;20968;-73
2020/12/25 01:39:19;;;;;;;1.50;1.40;;;;;;;-4.72;76.40;99982.03;1766352;81;22400;-74
2020/12/25 01:41:49;;;;;;;4.57;2.13;;;;;;;-4.71;76.52;99982.88;1766155;81;20909;-73
2020/12/25 01:44:17;;;;;;;2.60;2.40;;;;;;;-4.69;76.57;99981.89;1766269;81;20929;-73
2020/12/25 01:46:45;;;;;;;1.77;1.43;;;;;;;-4.67;76.65;99978.70;1766335;81;21000;-74
2020/12/25 01:49:13;;;;;;;1.60;1.43;;;;;;;-4.65;76.71;99974.20;1766258;81;20960;-73
2020/12/25 01:51:41;;;;;;;2.07;1.67;;;;;;;-4.64;76.71;99967.12;1766221;81;21195;-74
2020/12/25 01:54:10;;;;;;;3.43;2.10;;;;;;;-4.65;76.65;99961.48;1766267;81;20965;-74
2020/12/25 01:56:40;;;;;;;3.30;2.03;;;;;;;-4.65;76.63;99955.73;1766211;81;20941;-72
2020/12/25 01:59:08;;;;;;;1.37;1.27;;;;;;;-4.64;76.64;99969.77;1788770;80;21005;-74
2020/12/25 02:01:36;;;;;;;3.07;2.47;;;;;;;-4.65;76.63;99964.97;1798046;79;21021;-73
2020/12/25 02:04:04;;;;;;;1.20;1.20;;;;;;;-4.65;76.69;99960.16;1789210;80;21815;-73
2020/12/25 02:06:41;;;;;;;3.27;1.50;;;;;;;-4.65;76.65;99958.37;1797855;79;21025;-75
2020/12/25 02:09:09;;;;;;;1.50;1.40;;;;;;;-4.65;76.71;99949.61;1789081;80;20925;-75
2020/12/25 02:11:38;;;;;;;2.07;1.87;;;;;;;-4.64;76.68;99949.53;1797897;79;20961;-74
2020/12/25 02:14:06;;;;;;;1.80;1.70;;;;;;;-4.64;76.75;99945.58;1789091;80;20970;-74
2020/12/25 02:16:34;;;;;;;1.00;1.00;;;;;;;-4.64;76.71;99945.58;1773631;79;21214;-74
2020/12/25 02:19:02;;;;;;;0.80;0.80;;;;;;;-4.65;76.67;99943.86;1779072;80;21707;-74
2020/12/25 02:21:30;;;;;;;3.37;2.00;;;;;;;-4.64;76.61;99943.38;1729973;81;21049;-74
2020/12/25 02:23:57;;;;;;;3.20;2.10;;;;;;;-4.66;76.58;99940.81;1742547;82;20993;-74
2020/12/25 02:26:26;;;;;;;2.23;2.03;;;;;;;-4.67;76.63;99939.13;1749987;80;21511;-74
2020/12/25 02:28:54;;;;;;;1.10;1.10;;;;;;;-4.67;76.58;99945.72;1790636;80;21257;-74
2020/12/25 02:31:22;;;;;;;3.60;2.00;;;;;;;-4.66;76.63;99939.97;1734478;81;21028;-73
2020/12/25 02:33:50;;;;;;;1.80;1.63;;;;;;;-4.67;76.75;99939.13;1773224;81;20966;-74
2020/12/25 02:36:18;;;;;;;2.30;1.87;;;;;;;-4.66;76.80;99936.02;1773207;81;20941;-73
2020/12/25 02:38:46;;;;;;;3.87;1.40;;;;;;;-4.66;76.81;99938.66;1773214;80;21606;-74
2020/12/25 02:41:15;;;;;;;1.43;1.33;;;;;;;-4.66;76.78;99928.94;1772974;80;21357;-74
2020/12/25 02:43:43;;;;;;;3.50;1.97;;;;;;;-4.65;76.84;99934.63;1773263;81;20966;-73
2020/12/25 02:46:11;;;;;;;1.33;1.13;;;;;;;-4.63;76.91;99932.75;1773180;80;20977;-73
2020/12/25 02:48:39;;;;;;;3.40;2.57;;;;;;;-4.61;77.02;99931.36;1773108;79;20985;-74
2020/12/25 02:51:08;;;;;;;3.40;1.93;;;;;;;-4.59;77.09;99927.70;1773433;81;20934;-73
2020/12/25 02:53:35;;;;;;;3.77;2.17;;;;;;;-4.56;77.07;99920.59;1773327;80;21366;-73
2020/12/25 02:56:05;;;;;;;1.03;1.03;;;;;;;-4.56;77.13;99921.91;1773297;80;21064;-73
2020/12/25 02:58:33;;;;;;;4.00;1.77;;;;;;;-4.56;77.20;99918.79;1777093;79;21004;-73
2020/12/25 03:01:02;;;;;;;1.63;1.53;;;;;;;-4.54;77.30;99919.56;1794989;79;21016;-73
2020/12/25 03:03:31;;;;;;;3.97;2.20;;;;;;;-4.53;77.36;99915.13;1771880;81;20972;-73
2020/12/25 03:05:59;;;;;;;1.83;1.47;;;;;;;-4.52;77.48;99911.09;1803416;79;21361;-73
2020/12/25 03:08:27;;;;;;;2.17;1.87;;;;;;;-4.50;77.69;99913.19;1771927;81;21098;-73
2020/12/25 03:10:57;;;;;;;1.67;1.57;;;;;;;-4.49;77.83;99919.34;1803591;79;21300;-74
2020/12/25 03:13:25;;;;;;;1.80;1.70;;;;;;;-4.47;77.98;99911.72;1771789;81;21573;-73
2020/12/25 03:15:53;;;;;;;4.27;2.10;;;;;;;-4.43;78.23;99913.25;1794762;80;20997;-73
2020/12/25 03:18:22;;;;;;;6.07;1.43;;;;;;;-4.39;78.39;99911.34;1768711;81;21825;-74
2020/12/25 03:20:50;;;;;;;1.33;1.23;;;;;;;-4.35;78.64;99902.80;1761447;80;20944;-73
2020/12/25 03:23:18;;;;;;;1.97;1.60;;;;;;;-4.35;78.80;99918.16;1750614;82;20978;-74
2020/12/25 03:25:46;;;;;;;1.70;1.50;;;;;;;-4.35;78.96;99908.92;1735122;82;20999;-74
2020/12/25 03:28:14;;;;;;;2.17;1.90;;;;;;;-4.33;79.16;99916.29;1752754;81;21535;-73
2020/12/25 03:30:42;;;;;;;1.77;1.67;;;;;;;-4.33;79.31;99914.12;1735111;81;21543;-74
2020/12/25 03:33:10;;;;;;;3.53;2.20;;;;;;;-4.32;79.55;99910.53;1765131;81;21091;-76
2020/12/25 03:35:40;;;;;;;1.10;1.10;;;;;;;-4.31;79.79;99907.81;1760486;81;20990;-73
2020/12/25 03:38:08;;;;;;;1.60;1.50;;;;;;;-4.27;80.04;99907.19;1765013;81;20954;-74
2020/12/25 03:40:36;;;;;;;1.60;1.50;;;;;;;-4.21;80.23;99905.56;1765224;81;21531;-74
2020/12/25 03:43:04;;;;;;;4.40;2.77;;;;;;;-4.20;80.48;99890.09;1765030;81;21218;-74
2020/12/25 03:45:32;;;;;;;2.33;2.13;;;;;;;-4.20;80.64;99892.28;1764922;81;21053;-73
2020/12/25 03:48:00;;;;;;;2.77;2.57;;;;;;;-4.19;80.94;99893.13;1734993;82;21044;-73
2020/12/25 03:50:28;;;;;;;3.80;3.00;;;;;;;-4.19;81.15;99897.09;1765285;81;20938;-74
2020/12/25 03:52:57;;;;;;;2.70;2.50;;;;;;;-4.20;81.28;99890.09;1734972;81;21069;-73
2020/12/25 03:55:25;;;;;;;2.20;2.10;;;;;;;-4.16;81.43;99885.05;1765272;81;21911;-73
2020/12/25 03:57:53;;;;;;;1.67;1.57;;;;;;;-4.14;81.59;99888.46;1764373;81;21140;-73
2020/12/25 04:00:21;;;;;;;5.50;2.43;;;;;;;-4.16;81.72;99877.58;1732108;82;21025;-73
2020/12/25 04:02:49;;;;;;;4.13;2.13;;;;;;;-4.18;81.83;99878.97;1762709;81;21435;-73
2020/12/25 04:05:18;;;;;;;7.97;3.60;;;;;;;-4.19;81.97;99878.61;1732402;82;20894;-74
2020/12/25 04:07:46;;;;;;;6.83;3.07;;;;;;;-4.18;82.04;99871.05;1762428;81;21448;-72
2020/12/25 04:10:15;;;;;;;3.37;2.30;;;;;;;-4.17;82.18;99876.73;1732336;82;21017;-74
2020/12/25 04:12:43;;;;;;;3.03;2.13;;;;;;;-4.16;82.31;99864.37;1762721;81;21005;-74
2020/12/25 04:15:12;;;;;;;3.13;2.90;;;;;;;-4.15;82.47;99859.49;1732273;82;21096;-74
2020/12/25 04:17:40;;;;;;;2.13;2.00;;;;;;;-4.14;82.72;99855.89;1762800;81;21456;-73
2020/12/25 04:20:08;;;;;;;1.47;1.10;;;;;;;-4.13;82.87;99870.82;1745713;82;21821;-74
2020/12/25 04:22:36;;;;;;;2.53;1.73;;;;;;;-4.12;83.03;99860.17;1760689;81;20997;-74
2020/12/25 04:25:05;;;;;;;3.87;2.67;;;;;;;-4.09;83.25;99858.70;1760846;81;21586;-73
2020/12/25 04:27:34;;;;;;;2.13;2.03;;;;;;;-4.06;83.41;99855.03;1760568;80;21000;-75
2020/12/25 04:30:04;;;;;;;3.73;2.53;;;;;;;-4.07;83.64;99846.27;1731652;81;21062;-73
2020/12/25 04:32:32;;;;;;;2.60;1.63;;;;;;;-4.06;83.73;99855.87;1730560;83;21066;-74
2020/12/25 04:35:01;;;;;;;2.20;2.00;;;;;;;-4.05;83.82;99851.47;1729636;83;20997;-76
2020/12/25 04:37:29;;;;;;;4.10;2.87;;;;;;;-4.07;83.94;99847.58;1722249;82;21056;-74
2020/12/25 04:39:58;;;;;;;3.87;2.23;;;;;;;-4.06;84.09;99840.50;1748686;82;21122;-75
2020/12/25 04:42:27;;;;;;;5.43;2.47;;;;;;;-4.04;84.17;99837.30;1748601;82;20987;-74
2020/12/25 04:44:55;;;;;;;3.77;2.33;;;;;;;-3.99;84.29;99830.47;1748489;82;21786;-74
2020/12/25 04:47:24;;;;;;;3.00;2.53;;;;;;;-3.95;84.46;99826.70;1723667;82;21011;-74
2020/12/25 04:49:52;;;;;;;2.47;2.00;;;;;;;-3.94;84.62;99831.91;1748625;82;21265;-74
2020/12/25 04:52:20;;;;;;;2.30;2.13;;;;;;;-3.90;84.73;99827.31;1748580;82;20956;-74
2020/12/25 04:54:52;;;;;;;1.73;1.63;;;;;;;-3.85;84.83;99818.67;1748615;82;21473;-73
2020/12/25 04:57:21;;;;;;;4.40;2.83;;;;;;;-3.83;84.94;99824.71;1748224;82;21703;-74
2020/12/25 04:59:49;;;;;;;3.63;1.73;;;;;;;-3.82;85.08;99820.67;1748617;81;20951;-74
2020/12/25 05:02:16;;;;;;;2.30;1.90;;;;;;;-3.78;85.20;99820.51;1748954;82;20967;-74
2020/12/25 05:04:46;;;;;;;6.47;3.27;;;;;;;-3.75;85.46;99814.58;1748873;82;20999;-74
2020/12/25 05:07:15;;;;;;;2.17;1.77;;;;;;;-3.71;85.58;99807.34;1719704;82;21106;-74
2020/12/25 05:09:43;;;;;;;4.20;2.63;;;;;;;-3.68;85.73;99801.88;1748831;81;21199;-72
2020/12/25 05:12:11;;;;;;;4.33;2.70;;;;;;;-3.62;85.90;99800.20;1748859;82;21042;-74
2020/12/25 05:14:43;;;;;;;3.87;3.00;;;;;;;-3.60;86.09;99797.00;1748626;82;20976;-74
2020/12/25 05:17:12;;;;;;;2.33;2.07;;;;;;;-3.57;86.14;99803.92;1748667;81;21518;-74
2020/12/25 05:19:41;;;;;;;2.47;2.30;;;;;;;-3.56;86.18;99785.34;1740719;81;21559;-74
2020/12/25 05:22:09;;;;;;;3.93;3.03;;;;;;;-3.52;86.24;99793.45;1771995;81;21821;-72
2020/12/25 05:24:39;;;;;;;1.73;1.63;;;;;;;-3.52;86.27;99774.11;1766016;79;21080;-73
2020/12/25 05:27:14;;;;;;;6.10;2.43;;;;;;;-3.52;86.30;99786.85;1766147;81;20993;-75
2020/12/25 05:29:42;;;;;;;2.73;2.23;;;;;;;-3.51;86.40;99779.28;1740921;81;21049;-73
2020/12/25 05:32:10;;;;;;;4.10;2.73;;;;;;;-3.50;86.48;99774.88;1735238;81;21097;-74
2020/12/25 05:34:38;;;;;;;2.40;2.20;;;;;;;-3.48;86.53;99763.73;1704710;82;21638;-74
2020/12/25 05:37:08;;;;;;;4.50;2.27;;;;;;;-3.45;86.65;99749.03;1745855;79;21009;-74
2020/12/25 05:39:38;;;;;;;5.03;1.93;;;;;;;-3.44;86.70;99748.91;1767269;79;20961;-74
2020/12/25 05:42:07;;;;;;;4.33;2.97;;;;;;;-3.40;86.84;99756.67;1798258;79;20985;-73
2020/12/25 05:44:43;;;;;;;3.43;1.97;;;;;;;-3.38;86.99;99740.24;1766643;81;21541;-73
2020/12/25 05:47:14;;;;;;;4.13;2.70;;;;;;;-3.36;87.05;99743.20;1692051;84;21582;-74
2020/12/25 05:49:43;;;;;;;2.43;2.23;;;;;;;-3.28;87.20;99742.73;1745191;82;20990;-74
2020/12/25 05:52:13;;;;;;;4.47;3.13;;;;;;;-3.26;87.33;99732.47;1745386;82;21650;-73
2020/12/25 05:54:45;;;;;;;1.90;1.77;;;;;;;-3.23;87.44;99720.84;1745101;82;20982;-73
2020/12/25 05:57:13;;;;;;;3.87;2.93;;;;;;;-3.18;87.55;99725.39;1703723;84;21013;-73
2020/12/25 05:59:45;;;;;;;3.07;2.77;;;;;;;-3.14;87.64;99719.44;1745087;82;22224;-74
2020/12/25 06:02:13;;;;;;;3.17;1.83;;;;;;;-3.09;87.72;99718.70;1745338;82;20978;-74
2020/12/25 06:04:41;;;;;;;2.27;2.13;;;;;;;-3.07;87.83;99722.94;1680834;84;20965;-74
2020/12/25 06:07:11;;;;;;;4.33;2.37;;;;;;;-3.03;87.94;99715.67;1699661;84;21033;-73
2020/12/25 06:09:41;;;;;;;4.87;3.00;;;;;;;-3.00;88.01;99708.88;1745241;82;20950;-74
2020/12/25 06:12:10;;;;;;;2.93;2.57;;;;;;;-2.98;88.05;99722.86;1740316;82;22260;-75
2020/12/25 06:14:38;;;;;;;2.13;1.63;;;;;;;-2.94;88.18;99731.01;1687312;83;21053;-75
2020/12/25 06:17:18;;;;;;;3.63;2.87;;;;;;;-2.90;88.32;99742.26;1655346;86;21014;-74
2020/12/25 06:20:02;;;;;;;1.67;1.57;;;;;;;-2.86;88.42;99741.96;1714389;83;20969;-75
2020/12/25 06:22:41;;;;;;;2.27;2.00;;;;;;;-2.76;88.57;99741.39;1843463;76;25861;-74
2020/12/25 06:25:13;;;;;;;2.00;1.80;;;;;;;-2.76;88.62;99742.27;1806091;77;21020;-72
2020/12/25 06:27:52;;;;;;;2.00;1.83;;;;;;;-2.73;88.67;99746.51;1803064;77;22866;-76
2020/12/25 06:30:24;;;;;;;2.90;2.13;;;;;;;-2.73;88.76;99751.32;1822583;77;21020;-73
2020/12/25 06:32:54;;;;;;;2.53;2.33;;;;;;;-2.74;88.86;99745.67;1822494;78;21435;-75
2020/12/25 06:35:35;;;;;;;2.57;2.27;;;;;;;-2.75;88.92;99755.02;1822740;78;20981;-75
2020/12/25 06:38:12;;;;;;;3.30;2.07;;;;;;;-2.74;88.99;99746.99;1822529;78;20922;-74
2020/12/25 06:40:41;;;;;;;2.70;2.27;;;;;;;-2.70;89.08;99744.52;1783498;80;21253;-74
2020/12/25 06:43:16;;;;;;;2.13;1.93;;;;;;;-2.65;89.18;99740.28;1822556;78;20996;-67
2020/12/25 06:45:47;;;;;;;6.87;2.80;;;;;;;-2.61;89.26;99730.36;1790806;78;20977;-68
2020/12/25 06:48:18;;;;;;;4.80;3.00;;;;;;;-2.55;89.32;99732.16;1817689;78;20921;-69
2020/12/25 06:50:55;;;;;;;3.50;1.20;;;;;;;-2.49;89.41;99730.92;1821897;78;20926;-69
2020/12/25 06:53:42;;;;;;;1.07;1.07;;;;;;;-2.44;89.48;99723.55;1783102;80;21138;-68
2020/12/25 06:56:16;;;;;;;2.63;2.17;;;;;;;-2.38;89.56;99719.66;1832186;77;21038;-70
2020/12/25 06:58:47;;;;;;;2.27;2.08;;;;;;;-2.35;89.65;99725.61;1822217;78;20988;-68
2020/12/25 07:01:17;;;;;;;2.23;2.03;;;;;;;-2.32;89.72;99721.91;1821995;77;20887;-69
2020/12/25 07:03:45;;;;;;;2.90;2.03;;;;;;;-2.31;89.74;99711.22;1821879;78;21006;-69
2020/12/25 07:06:14;;;;;;;2.07;1.83;;;;;;;-2.25;89.83;99709.13;1822366;78;21563;-70
2020/12/25 07:08:47;;;;;;;2.33;2.17;;;;;;;-2.20;89.92;99709.69;1822322;78;21240;-71
2020/12/25 07:11:16;;;;;;;5.87;4.40;;;;;;;-2.14;90.00;99717.26;1822354;78;21014;-73
2020/12/25 07:13:44;;;;;;;3.87;3.50;;;;;;;-2.08;90.08;99723.95;1791093;78;20983;-70
2020/12/25 07:16:12;;;;;;;3.33;3.03;;;;;;;-2.05;90.12;99707.39;1821920;78;21559;-70
2020/12/25 07:18:40;;;;;;;3.30;2.83;;;;;;;-2.00;90.20;99710.59;1821682;77;22179;-70
2020/12/25 07:21:09;;;;;;;2.37;2.17;;;;;;;-1.96;90.28;99712.09;1821815;77;21462;-70
2020/12/25 07:23:43;;;;;;;2.40;1.93;;;;;;;-1.91;90.37;99697.23;1821829;78;20968;-70
2020/12/25 07:26:12;;;;;;;3.13;2.80;;;;;;;-1.86;90.44;99697.78;1821824;78;21134;-70
2020/12/25 07:28:41;;;;;;;1.87;1.77;;;;;;;-1.85;90.54;99702.59;1832685;77;21557;-69
2020/12/25 07:31:09;;;;;;;1.87;1.70;;;;;;;-1.83;90.59;99687.44;1822174;78;21150;-70
2020/12/25 07:33:37;;;;;;;1.57;1.47;;;;;;;-1.82;90.62;99705.05;1821350;78;21262;-71
2020/12/25 07:36:10;;;;;;;3.83;3.50;;;;;;;-1.81;90.69;99690.34;1821425;78;20901;-71
2020/12/25 07:38:38;;;;;;;3.60;3.30;;;;;;;-1.79;90.75;99696.42;1821488;78;20905;-70
2020/12/25 07:41:06;;;;;;;2.80;2.10;;;;;;;-1.77;90.81;99705.12;1821222;78;20988;-69
2020/12/25 07:43:35;;;;;;;1.07;1.07;;;;;;;-1.75;90.87;99699.72;1825563;77;21320;-68
2020/12/25 07:46:12;;;;;;;4.90;3.00;;;;;;;-1.74;90.95;99688.15;1822854;77;20993;-69
2020/12/25 07:48:41;;;;;;;2.00;1.83;;;;;;;-1.70;91.05;99703.37;1789569;77;21311;-69
2020/12/25 07:51:10;;;;;;;1.90;1.80;;;;;;;-1.68;91.11;99693.06;1820606;78;21651;-72
2020/12/25 07:53:39;;;;;;;1.30;1.27;;;;;;;-1.63;91.17;99694.06;1820854;78;21523;-69
2020/12/25 07:56:09;;;;;;;0.97;0.97;;;;;;;-1.59;91.22;99695.58;1786669;78;21206;-70
2020/12/25 07:58:38;;;;;;;1.20;1.20;;;;;;;-1.55;91.27;99685.97;1822385;77;21004;-69
2020/12/25 08:01:07;;;;;;;1.40;1.40;;;;;;;-1.50;91.39;99674.23;1789307;78;20965;-70
2020/12/25 08:03:35;;;;;;;2.03;1.87;;;;;;;-1.46;91.41;99656.66;1820634;78;20961;-69
2020/12/25 08:06:03;;;;;;;1.50;1.40;;;;;;;-1.40;91.48;99643.45;1821373;77;20984;-70
2020/12/25 08:08:33;;;;;;;1.67;1.27;;;;;;;-1.37;91.55;99648.08;1835119;77;22172;-70
2020/12/25 08:11:01;;;;;;;1.97;1.03;;;;;;;-1.33;91.62;99638.10;1790046;78;21570;-71
2020/12/25 08:13:29;;;;;;;0.93;0.93;;;;;;;-1.25;91.70;99629.64;1821622;77;20930;-69
2020/12/25 08:15:57;;;;;;;1.93;1.63;;;;;;;-1.21;91.78;99639.08;1821287;78;20954;-68
2020/12/25 08:18:25;;;;;;;1.03;1.03;;;;;;;-1.17;91.86;99629.94;1821978;77;20989;-69
2020/12/25 08:20:54;;;;;;;1.33;1.23;;;;;;;-1.14;91.96;99632.39;1764034;78;22528;-67
2020/12/25 08:23:22;;;;;;;2.50;1.53;;;;;;;-1.11;92.03;99628.20;1826864;78;21022;-68
2020/12/25 08:25:53;;;;;;;2.07;1.83;;;;;;;-1.06;92.08;99625.21;1828630;78;21814;-74
2020/12/25 08:28:24;;;;;;;1.80;1.70;;;;;;;-1.03;92.15;99618.37;1799800;78;21028;-77
2020/12/25 08:30:52;;;;;;;2.27;2.07;;;;;;;-1.00;92.24;99608.88;1833591;78;20970;-74
2020/12/25 08:33:27;;;;;;;1.43;0.80;;;;;;;-0.95;92.39;99610.73;1832440;77;21476;-76
2020/12/25 08:35:55;;;;;;;4.13;1.57;;;;;;;-0.92;92.44;99602.55;1833193;77;21520;-75
2020/12/25 08:38:23;;;;;;;1.57;1.47;;;;;;;-0.86;92.52;99596.80;1829118;77;21069;-77
2020/12/25 08:40:51;;;;;;;0.90;0.90;;;;;;;-0.83;92.60;99604.55;1827869;78;21001;-75
2020/12/25 08:43:21;;;;;;;1.50;1.40;;;;;;;-0.80;92.69;99601.69;1827667;77;20938;-75
2020/12/25 08:45:59;;;;;;;0.90;0.90;;;;;;;-0.77;92.83;99596.13;1832391;77;21907;-79
2020/12/25 08:48:28;;;;;;;1.20;1.10;;;;;;;-0.71;92.96;99596.66;1845856;77;20949;-78
2020/12/25 08:51:09;;;;;;;1.10;1.00;;;;;;;-0.67;93.02;99596.83;1862500;77;21040;-81
2020/12/25 08:53:38;;;;;;;3.33;1.73;;;;;;;-0.63;93.15;99590.33;1755289;81;20965;-81
2020/12/25 08:56:20;;;;;;;1.00;0.93;;;;;;;-0.61;93.32;99602.52;1755332;81;21522;-80
2020/12/25 08:59:02;;;;;;;1.80;1.23;;;;;;;-0.56;93.48;99588.92;1756954;81;21370;-80
2020/12/25 09:01:41;;;;;;;1.30;1.20;;;;;;;-0.48;93.59;99589.23;1894710;75;26821;-80
2020/12/25 09:04:15;;;;;;;1.77;1.40;;;;;;;-0.49;93.65;99578.22;1878555;76;20969;-79
2020/12/25 09:06:44;;;;;;;2.07;1.87;;;;;;;-0.46;93.74;99579.33;1766958;79;21567;-86
2020/12/25 09:09:14;;;;;;;2.53;1.33;;;;;;;-0.46;93.79;99578.46;1747543;82;20953;-82
2020/12/25 09:11:42;;;;;;;1.40;1.30;;;;;;;-0.45;93.81;99581.02;1766906;81;21493;-79
2020/12/25 09:14:10;;;;;;;1.97;1.60;;;;;;;-0.42;93.83;99572.83;1745797;81;21340;-82
2020/12/25 09:16:38;;;;;;;1.40;1.40;;;;;;;-0.38;93.88;99572.12;1791283;80;20981;-79
2020/12/25 09:19:07;;;;;;;1.63;1.53;;;;;;;-0.36;93.97;99568.86;1749139;81;21810;-82
2020/12/25 09:21:35;;;;;;;1.83;1.63;;;;;;;-0.34;94.07;99565.61;1751097;82;20992;-79
2020/12/25 09:24:03;;;;;;;2.17;1.43;;;;;;;-0.32;94.11;99563.71;1780142;80;20949;-77
2020/12/25 09:26:31;;;;;;;3.03;2.10;;;;;;;-0.30;94.15;99555.60;1778426;80;21072;-76
2020/12/25 09:28:59;;;;;;;2.93;2.20;;;;;;;-0.29;94.14;99550.67;1737017;81;20939;-75
2020/12/25 09:31:29;;;;;;;1.70;1.60;;;;;;;-0.29;94.13;99552.84;1789920;80;21369;-75
2020/12/25 09:33:59;;;;;;;1.37;1.27;;;;;;;-0.27;94.20;99549.58;1787669;80;21215;-77
2020/12/25 09:36:45;;;;;;;1.53;1.43;;;;;;;-0.22;94.22;99547.43;1852714;76;26869;-75
2020/12/25 09:39:13;;;;;;;2.07;1.93;;;;;;;-0.24;94.24;99550.69;1783371;80;21019;-77
2020/12/25 09:41:42;;;;;;;2.00;1.80;;;;;;;-0.21;94.28;99550.47;1838511;77;21331;-76
2020/12/25 09:44:12;;;;;;;1.53;1.53;;;;;;;-0.18;94.34;99544.55;1843076;76;21000;-82
2020/12/25 09:46:43;;;;;;;1.87;1.77;;;;;;;-0.16;94.35;99549.27;1870938;76;20961;-80
2020/12/25 09:49:11;;;;;;;4.43;1.83;;;;;;;-0.16;94.45;99555.45;1838598;76;20945;-77
2020/12/25 09:51:40;;;;;;;1.53;1.50;;;;;;;-0.14;94.47;99548.20;1823170;78;20929;-74
2020/12/25 09:54:08;;;;;;;3.67;2.40;;;;;;;-0.12;94.51;99563.55;1823627;78;21008;-76
2020/12/25 09:56:36;;;;;;;3.47;2.80;;;;;;;-0.08;94.60;99565.50;1822929;78;21048;-76
2020/12/25 09:59:04;;;;;;;4.50;2.77;;;;;;;-0.06;94.67;99560.91;1823466;78;21079;-78
2020/12/25 10:01:32;;;;;;;4.67;2.80;;;;;;;-0.05;94.80;99558.14;1823304;78;20934;-81
2020/12/25 10:04:00;;;;;;;4.20;3.73;;;;;;;-0.01;94.86;99569.39;1823631;78;21000;-79
2020/12/25 10:06:28;;;;;;;6.73;4.33;;;;;;;0.02;94.98;99562.98;1823616;77;21327;-78
2020/12/25 10:08:56;;;;;;;2.50;2.30;;;;;;;0.05;95.03;99566.75;1823334;78;20997;-79
2020/12/25 10:11:25;;;;;;;3.37;2.60;;;;;;;0.07;95.09;99550.20;1823443;78;21022;-78
2020/12/25 10:13:54;;;;;;;8.47;4.33;;;;;;;0.07;95.13;99548.86;1823453;78;21054;-81
2020/12/25 10:16:23;;;;;;;4.83;2.80;;;;;;;0.09;95.20;99548.27;1842735;77;21056;-78
2020/12/25 10:18:50;;;;;;;2.87;2.07;;;;;;;0.09;95.20;99545.60;1847954;77;21646;-80
2020/12/25 10:21:18;;;;;;;5.77;2.80;;;;;;;0.13;95.29;99513.36;1823347;78;21008;-79
2020/12/25 10:23:46;;;;;;;4.13;3.10;;;;;;;0.16;95.41;99518.45;1823240;78;20988;-80
2020/12/25 10:26:14;;;;;;;3.27;2.73;;;;;;;0.18;95.46;99515.68;1823233;78;21059;-80
2020/12/25 10:28:42;;;;;;;5.00;2.63;;;;;;;0.19;95.50;99522.67;1823516;78;20872;-81
2020/12/25 10:31:12;;;;;;;6.53;3.40;;;;;;;0.20;95.56;99507.59;1823928;78;21750;-80
2020/12/25 10:33:42;;;;;;;4.73;3.97;;;;;;;0.22;95.63;99510.98;1823598;78;20920;-80
2020/12/25 10:36:12;;;;;;;6.93;2.87;;;;;;;0.25;95.73;99527.54;1723253;83;21163;-79
2020/12/25 10:38:40;;;;;;;3.80;2.93;;;;;;;0.30;95.79;99508.55;1730091;83;21017;-79
2020/12/25 10:41:11;;;;;;;1.47;1.37;;;;;;;0.30;95.84;99505.43;1730354;83;20985;-79
2020/12/25 10:43:39;;;;;;;4.33;3.10;;;;;;;0.32;95.92;99500.84;1729538;83;21211;-70
2020/12/25 10:46:08;;;;;;;2.80;2.40;;;;;;;0.38;96.03;99491.53;1728249;83;21032;-71
2020/12/25 10:48:36;;;;;;;3.70;3.07;;;;;;;0.40;96.13;99498.90;1725011;81;21147;-72
2020/12/25 10:51:06;;;;;;;2.37;1.57;;;;;;;0.44;96.23;99483.05;1721963;83;21052;-71
2020/12/25 10:53:35;;;;;;;3.97;2.30;;;;;;;0.44;96.28;99497.69;1738754;81;21076;-71
2020/12/25 10:56:04;;;;;;;3.73;2.40;;;;;;;0.45;96.36;99491.91;1739742;81;22546;-70
2020/12/25 10:58:32;;;;;;;3.60;1.60;;;;;;;0.46;96.38;99485.14;1736114;81;21575;-70
2020/12/25 11:01:00;;;;;;;2.03;1.87;;;;;;;0.46;96.39;99486.92;1726694;81;21063;-69
2020/12/25 11:03:28;;;;;;;2.80;2.07;;;;;;;0.48;96.42;99494.30;1719730;83;21748;-69
2020/12/25 11:05:56;;;;;;;3.10;1.93;;;;;;;0.50;96.50;99495.89;1719867;83;21025;-71
2020/12/25 11:08:24;;;;;;;2.33;1.70;;;;;;;0.52;96.60;99495.28;1719936;83;21200;-69
2020/12/25 11:10:52;;;;;;;1.30;1.20;;;;;;;0.56;96.67;99496.72;1719812;83;20981;-69
2020/12/25 11:13:20;;;;;;;1.37;1.27;;;;;;;0.56;96.67;99490.56;1719681;83;20977;-72
2020/12/25 11:15:48;;;;;;;1.70;1.60;;;;;;;0.59;96.78;99490.33;1734181;81;21248;-78
2020/12/25 11:18:16;;;;;;;1.97;1.77;;;;;;;0.62;96.86;99485.23;1742116;81;20990;-78
2020/12/25 11:20:44;;;;;;;2.40;1.43;;;;;;;0.64;97.00;99486.83;1741344;81;22169;-75
2020/12/25 11:23:12;;;;;;;1.17;1.13;;;;;;;0.68;97.15;99483.44;1761675;81;21048;-76
2020/12/25 11:25:43;;;;;;;2.87;1.80;;;;;;;0.70;97.25;99485.49;1735487;81;21164;-81
2020/12/25 11:28:11;;;;;;;1.73;1.60;;;;;;;0.70;97.31;99466.86;1747803;81;21080;-82
2020/12/25 11:30:39;;;;;;;2.03;1.83;;;;;;;0.71;97.35;99472.56;1723709;83;21082;-80
2020/12/25 11:33:07;;;;;;;0.70;0.70;;;;;;;0.71;97.38;99480.55;1784462;77;21363;-79
2020/12/25 11:35:36;;;;;;;1.63;1.23;;;;;;;0.72;97.42;99468.91;1838202;77;21018;-75
2020/12/25 11:38:04;;;;;;;1.50;1.40;;;;;;;0.74;97.47;99463.84;1822001;78;20990;-75
2020/12/25 11:40:32;;;;;;;1.83;1.67;;;;;;;0.81;97.60;99471.33;1820875;77;21030;-73
2020/12/25 11:43:01;;;;;;;2.73;2.07;;;;;;;0.84;97.72;99478.58;1821145;77;20999;-73